Time;durP1;ratioP1;P1;durP2;ratioP2;P2;SDS_P1;SDS_P2;PMS_P1;PMS_P2;Temp;Humidity;BMP_temperature;BMP_pressure;BME280_temperature;BME280_humidity;BME280_pressure;Samples;Min_cycle;Max_cycle;Signal;HPM_P1;HPM_P2
2023/01/16 00:00:38;;;;;;;4.50;1.30;;;;;;;;;;4917787;28;20222;-67
2023/01/16 00:03:03;;;;;;;3.67;1.10;;;;;;;;;;4917269;28;20683;-67
2023/01/16 00:05:29;;;;;;;4.70;1.20;;;;;;;;;;4924877;29;20215;-67
2023/01/16 00:07:54;;;;;;;3.03;0.87;;;;;;;;;;4925548;29;20214;-67
2023/01/16 00:10:20;;;;;;;3.33;1.03;;;;;;;;;;4923526;29;20256;-67
2023/01/16 00:12:47;;;;;;;2.70;0.80;;;;;;;;;;4925596;29;20573;-67
2023/01/16 00:15:12;;;;;;;3.10;1.10;;;;;;;;;;4941806;28;20740;-66
2023/01/16 00:17:37;;;;;;;3.70;1.03;;;;;;;;;;4943481;28;20226;-67
2023/01/16 00:20:03;;;;;;;3.77;0.90;;;;;;;;;;4937738;28;20571;-67
2023/01/16 00:22:28;;;;;;;2.23;0.80;;;;;;;;;;4935769;28;20222;-67
2023/01/16 00:24:53;;;;;;;1.47;0.67;;;;;;;;;;4935574;28;20214;-67
2023/01/16 00:27:19;;;;;;;2.53;0.90;;;;;;;;;;4942000;28;20654;-67
2023/01/16 00:29:44;;;;;;;3.10;0.83;;;;;;;;;;4943917;28;20230;-67
2023/01/16 00:32:10;;;;;;;2.20;0.80;;;;;;;;;;4942634;28;20225;-67
2023/01/16 00:34:35;;;;;;;2.27;0.77;;;;;;;;;;4945864;28;20210;-67
2023/01/16 00:37:00;;;;;;;2.20;0.80;;;;;;;;;;4943704;28;20235;-67
2023/01/16 00:39:26;;;;;;;1.73;1.07;;;;;;;;;;4927936;29;20567;-67
2023/01/16 00:41:51;;;;;;;2.20;0.90;;;;;;;;;;4925771;28;20286;-67
2023/01/16 00:44:16;;;;;;;2.43;1.30;;;;;;;;;;4921112;29;20792;-67
2023/01/16 00:46:41;;;;;;;2.33;1.43;;;;;;;;;;4920392;29;20219;-67
2023/01/16 00:49:07;;;;;;;2.37;1.50;;;;;;;;;;4923592;29;20219;-67
2023/01/16 00:51:32;;;;;;;1.90;1.37;;;;;;;;;;4928417;29;20215;-67
2023/01/16 00:53:57;;;;;;;2.97;1.63;;;;;;;;;;4927791;29;20238;-67
2023/01/16 00:56:23;;;;;;;2.77;1.90;;;;;;;;;;4928362;29;20223;-66
2023/01/16 00:58:48;;;;;;;3.10;1.87;;;;;;;;;;4928254;29;20215;-67
2023/01/16 01:01:13;;;;;;;2.70;2.00;;;;;;;;;;4927422;28;20215;-67
2023/01/16 01:03:39;;;;;;;2.67;2.20;;;;;;;;;;4927359;28;20222;-67
2023/01/16 01:06:05;;;;;;;2.37;2.10;;;;;;;;;;4920152;29;20786;-67
2023/01/16 01:08:30;;;;;;;2.20;2.00;;;;;;;;;;4919342;29;20230;-67
2023/01/16 01:10:55;;;;;;;3.50;2.50;;;;;;;;;;4920635;29;20238;-67
2023/01/16 01:13:20;;;;;;;3.97;2.43;;;;;;;;;;4926591;29;20762;-67
2023/01/16 01:15:46;;;;;;;2.97;2.20;;;;;;;;;;4928368;29;20218;-67
2023/01/16 01:18:11;;;;;;;4.13;2.50;;;;;;;;;;4927228;29;20222;-67
2023/01/16 01:20:36;;;;;;;4.10;2.90;;;;;;;;;;4927517;29;20211;-67
2023/01/16 01:23:02;;;;;;;3.10;2.77;;;;;;;;;;4927257;29;20328;-66
2023/01/16 01:25:27;;;;;;;3.03;2.73;;;;;;;;;;4946643;28;21081;-67
2023/01/16 01:27:52;;;;;;;3.40;2.80;;;;;;;;;;4940136;28;20858;-67
2023/01/16 01:30:19;;;;;;;3.17;2.60;;;;;;;;;;4938078;28;20257;-67
2023/01/16 01:32:44;;;;;;;2.87;2.40;;;;;;;;;;4938818;28;20222;-67
2023/01/16 01:35:09;;;;;;;2.67;1.97;;;;;;;;;;4942981;28;20211;-66
2023/01/16 01:37:35;;;;;;;2.57;1.90;;;;;;;;;;4947135;28;20345;-67
2023/01/16 01:40:00;;;;;;;2.73;1.73;;;;;;;;;;4946143;28;20269;-67
2023/01/16 01:42:43;;;;;;;2.30;1.60;;;;;;;;;;4929347;29;20265;-67
2023/01/16 01:45:12;;;;;;;3.67;1.70;;;;;;;;;;4926021;29;20227;-64
2023/01/16 01:47:38;;;;;;;2.17;1.60;;;;;;;;;;4927916;29;20214;-65
2023/01/16 01:50:04;;;;;;;1.70;1.50;;;;;;;;;;4920864;29;20218;-65
2023/01/16 01:52:30;;;;;;;2.27;1.83;;;;;;;;;;4915262;29;20267;-65
2023/01/16 01:54:56;;;;;;;2.90;1.90;;;;;;;;;;4918364;29;20658;-65
2023/01/16 01:57:30;;;;;;;2.57;1.90;;;;;;;;;;4921076;29;20295;-65
2023/01/16 01:59:58;;;;;;;3.47;1.70;;;;;;;;;;4944754;28;20222;-65
2023/01/16 02:02:24;;;;;;;3.87;1.93;;;;;;;;;;4930089;28;20223;-65
2023/01/16 02:04:51;;;;;;;2.90;1.80;;;;;;;;;;4925058;29;20229;-65
2023/01/16 02:07:17;;;;;;;3.37;1.77;;;;;;;;;;4926829;29;20219;-65
2023/01/16 02:09:42;;;;;;;3.80;1.60;;;;;;;;;;4926289;29;20282;-65
2023/01/16 02:12:12;;;;;;;5.43;1.80;;;;;;;;;;4923700;29;20467;-65
2023/01/16 02:14:39;;;;;;;5.70;1.50;;;;;;;;;;4919405;29;20866;-65
2023/01/16 02:19:50;;;;;;;5.40;1.77;;;;;;;;;;4922673;29;20226;-65
2023/01/16 02:22:30;;;;;;;3.37;1.30;;;;;;;;;;4926177;29;20223;-65
2023/01/16 02:25:01;;;;;;;3.67;1.23;;;;;;;;;;4945157;28;20315;-65
2023/01/16 02:27:36;;;;;;;3.87;1.17;;;;;;;;;;4945512;28;20250;-65
2023/01/16 02:30:12;;;;;;;4.30;1.30;;;;;;;;;;4945040;28;20589;-65
2023/01/16 02:32:40;;;;;;;3.93;1.47;;;;;;;;;;4943832;28;20309;-65
2023/01/16 02:35:09;;;;;;;5.80;1.30;;;;;;;;;;4941194;28;20255;-65
2023/01/16 02:37:38;;;;;;;4.93;1.35;;;;;;;;;;4936595;28;20729;-65
2023/01/16 02:40:08;;;;;;;7.40;1.40;;;;;;;;;;4936461;28;20227;-65
2023/01/16 02:42:33;;;;;;;5.77;1.83;;;;;;;;;;4922997;29;20293;-65
2023/01/16 02:45:01;;;;;;;2.67;0.90;;;;;;;;;;4925890;29;20702;-65
2023/01/16 02:47:36;;;;;;;4.57;1.40;;;;;;;;;;4944630;28;20682;-65
2023/01/16 02:50:02;;;;;;;4.13;1.30;;;;;;;;;;4948562;28;20226;-65
2023/01/16 02:52:28;;;;;;;2.67;0.90;;;;;;;;;;4953169;29;20217;-65
2023/01/16 02:55:03;;;;;;;2.70;1.00;;;;;;;;;;4955003;29;20218;-65
2023/01/16 02:57:31;;;;;;;3.47;0.90;;;;;;;;;;4937344;29;20237;-65
2023/01/16 02:59:57;;;;;;;2.77;1.20;;;;;;;;;;4953962;29;20225;-65
2023/01/16 03:02:22;;;;;;;4.20;1.20;;;;;;;;;;4960462;28;20214;-65
2023/01/16 03:04:51;;;;;;;5.00;1.30;;;;;;;;;;4954524;28;20705;-65
2023/01/16 03:07:25;;;;;;;2.73;1.00;;;;;;;;;;4953056;28;20210;-65
2023/01/16 03:10:09;;;;;;;2.37;1.03;;;;;;;;;;4953943;28;20230;-65
2023/01/16 03:12:44;;;;;;;2.87;1.00;;;;;;;;;;4934898;29;20219;-65
2023/01/16 03:15:21;;;;;;;2.57;1.00;;;;;;;;;;4934205;29;20632;-65
2023/01/16 03:17:56;;;;;;;5.57;1.40;;;;;;;;;;4934403;29;20238;-65
2023/01/16 03:20:30;;;;;;;3.23;0.80;;;;;;;;;;4932810;29;20254;-65
2023/01/16 03:22:59;;;;;;;4.17;1.13;;;;;;;;;;4934166;29;20223;-65
2023/01/16 03:25:43;;;;;;;3.07;1.00;;;;;;;;;;4933682;29;20214;-65
2023/01/16 03:28:20;;;;;;;5.80;1.10;;;;;;;;;;4933962;29;20590;-65
2023/01/16 03:30:54;;;;;;;4.30;1.20;;;;;;;;;;4934003;29;20230;-65
2023/01/16 03:33:22;;;;;;;5.03;0.97;;;;;;;;;;4933493;29;20258;-65
2023/01/16 03:35:49;;;;;;;3.77;1.30;;;;;;;;;;4933889;29;20266;-65
2023/01/16 03:38:14;;;;;;;4.43;1.10;;;;;;;;;;4934707;29;20222;-65
2023/01/16 03:40:40;;;;;;;4.53;1.17;;;;;;;;;;4936386;29;20237;-65
2023/01/16 03:43:06;;;;;;;5.60;1.37;;;;;;;;;;4935932;28;20214;-65
2023/01/16 03:45:39;;;;;;;3.47;1.20;;;;;;;;;;4954228;28;20561;-65
2023/01/16 03:48:07;;;;;;;6.27;1.77;;;;;;;;;;4953071;28;20555;-65
2023/01/16 03:50:33;;;;;;;3.77;1.60;;;;;;;;;;4934485;29;20248;-65
2023/01/16 03:53:05;;;;;;;4.90;1.60;;;;;;;;;;4938256;29;20213;-65
2023/01/16 03:55:31;;;;;;;4.27;1.30;;;;;;;;;;4952962;28;20701;-65
2023/01/16 03:57:59;;;;;;;7.00;1.70;;;;;;;;;;4936619;29;20217;-65
2023/01/16 04:00:26;;;;;;;3.63;1.40;;;;;;;;;;4936633;29;20292;-65
2023/01/16 04:02:51;;;;;;;4.57;1.83;;;;;;;;;;4923239;29;20219;-65
2023/01/16 04:05:19;;;;;;;4.60;1.40;;;;;;;;;;4917580;29;20207;-65
2023/01/16 04:07:45;;;;;;;4.53;1.50;;;;;;;;;;4936178;28;20591;-65
2023/01/16 04:10:18;;;;;;;3.70;1.37;;;;;;;;;;4938625;28;20618;-65
2023/01/16 04:12:47;;;;;;;3.73;1.43;;;;;;;;;;4931792;29;20576;-65
2023/01/16 04:15:12;;;;;;;5.20;1.37;;;;;;;;;;4942271;28;20326;-65
2023/01/16 04:17:38;;;;;;;4.90;1.60;;;;;;;;;;4928621;29;20337;-65
2023/01/16 04:20:03;;;;;;;3.83;1.83;;;;;;;;;;4923387;29;20619;-65
2023/01/16 04:22:29;;;;;;;4.70;1.47;;;;;;;;;;4917277;29;20306;-64
2023/01/16 04:24:55;;;;;;;6.07;1.40;;;;;;;;;;4920905;29;20238;-64
2023/01/16 04:27:20;;;;;;;3.03;1.30;;;;;;;;;;4942614;28;20222;-65
2023/01/16 04:29:46;;;;;;;3.60;1.27;;;;;;;;;;4929445;29;20242;-65
2023/01/16 04:32:11;;;;;;;5.10;1.67;;;;;;;;;;4928158;29;20230;-64
2023/01/16 04:34:36;;;;;;;3.07;1.40;;;;;;;;;;4928716;29;20277;-64
2023/01/16 04:37:02;;;;;;;3.90;1.50;;;;;;;;;;4928118;29;20246;-64
2023/01/16 04:39:27;;;;;;;7.30;1.40;;;;;;;;;;4928462;29;20214;-64
2023/01/16 04:41:52;;;;;;;3.70;1.00;;;;;;;;;;4926652;29;20242;-64
2023/01/16 04:44:18;;;;;;;3.50;1.20;;;;;;;;;;4938132;28;20218;-65
2023/01/16 04:46:43;;;;;;;4.63;1.50;;;;;;;;;;4921870;29;20218;-64
2023/01/16 04:49:08;;;;;;;3.70;1.20;;;;;;;;;;4922508;29;20686;-64
2023/01/16 04:51:34;;;;;;;4.63;1.37;;;;;;;;;;4927918;29;20773;-64
2023/01/16 04:54:00;;;;;;;3.43;1.20;;;;;;;;;;4928539;29;20223;-64
2023/01/16 04:56:25;;;;;;;4.53;1.43;;;;;;;;;;4927799;29;20219;-64
2023/01/16 04:58:52;;;;;;;5.47;1.63;;;;;;;;;;4927913;29;20686;-64
2023/01/16 05:01:18;;;;;;;3.30;1.43;;;;;;;;;;4927817;29;20215;-64
2023/01/16 05:03:43;;;;;;;6.10;1.50;;;;;;;;;;4928338;29;20230;-65
2023/01/16 05:06:08;;;;;;;4.23;1.50;;;;;;;;;;4920299;29;20214;-64
2023/01/16 05:08:34;;;;;;;5.27;1.60;;;;;;;;;;4938414;28;20234;-64
2023/01/16 05:11:01;;;;;;;5.17;1.60;;;;;;;;;;4922028;29;20315;-64
2023/01/16 05:13:26;;;;;;;5.40;1.50;;;;;;;;;;4926386;29;20274;-65
2023/01/16 05:15:51;;;;;;;4.53;1.27;;;;;;;;;;4929596;29;20232;-64
2023/01/16 05:18:17;;;;;;;3.47;1.10;;;;;;;;;;4928077;29;20227;-64
2023/01/16 05:20:42;;;;;;;3.93;1.30;;;;;;;;;;4927002;29;20638;-64
2023/01/16 05:23:10;;;;;;;4.33;1.07;;;;;;;;;;4927695;29;20223;-64
2023/01/16 05:25:35;;;;;;;2.93;1.10;;;;;;;;;;4928107;29;20230;-65
2023/01/16 05:28:01;;;;;;;5.23;1.30;;;;;;;;;;4922231;28;20577;-64
2023/01/16 05:30:26;;;;;;;2.93;1.10;;;;;;;;;;4919712;29;20584;-64
2023/01/16 05:32:51;;;;;;;3.90;1.37;;;;;;;;;;4920182;29;20229;-65
2023/01/16 05:35:17;;;;;;;3.23;1.20;;;;;;;;;;4941663;28;20273;-64
2023/01/16 05:37:42;;;;;;;4.10;1.20;;;;;;;;;;4939249;28;20277;-64
2023/01/16 05:40:08;;;;;;;4.63;1.10;;;;;;;;;;4927241;29;20577;-65
2023/01/16 05:42:33;;;;;;;3.30;1.20;;;;;;;;;;4927155;29;20285;-64
2023/01/16 05:44:58;;;;;;;4.53;1.00;;;;;;;;;;4927850;29;20590;-64
2023/01/16 05:47:24;;;;;;;3.53;1.20;;;;;;;;;;4927041;29;20219;-64
2023/01/16 05:49:49;;;;;;;4.93;1.20;;;;;;;;;;4924373;29;20231;-64
2023/01/16 05:52:14;;;;;;;4.23;1.17;;;;;;;;;;4919701;29;20227;-64
2023/01/16 05:54:40;;;;;;;6.03;1.40;;;;;;;;;;4918656;29;20219;-64
2023/01/16 05:57:05;;;;;;;4.03;1.10;;;;;;;;;;4921370;29;20226;-64
2023/01/16 05:59:30;;;;;;;2.73;1.00;;;;;;;;;;4927613;29;20305;-64
2023/01/16 06:01:56;;;;;;;3.63;1.10;;;;;;;;;;4926186;29;20222;-64
2023/01/16 06:04:22;;;;;;;4.13;1.13;;;;;;;;;;4926845;29;20654;-64
2023/01/16 06:06:47;;;;;;;2.20;0.80;;;;;;;;;;4927380;29;20255;-64
2023/01/16 06:09:13;;;;;;;3.63;1.30;;;;;;;;;;4925729;29;20234;-64
2023/01/16 06:11:38;;;;;;;3.27;0.90;;;;;;;;;;4927277;29;20318;-65
2023/01/16 06:14:04;;;;;;;4.67;1.20;;;;;;;;;;4919745;29;20743;-64
2023/01/16 06:16:30;;;;;;;3.40;1.10;;;;;;;;;;4919246;29;20219;-64
2023/01/16 06:18:55;;;;;;;2.67;1.07;;;;;;;;;;4919584;29;20219;-64
2023/01/16 06:21:20;;;;;;;3.27;0.97;;;;;;;;;;4925575;29;20222;-64
2023/01/16 06:23:46;;;;;;;3.60;0.87;;;;;;;;;;4926215;29;20219;-64
2023/01/16 06:26:11;;;;;;;3.80;1.00;;;;;;;;;;4926287;29;20219;-64
2023/01/16 06:28:37;;;;;;;3.23;1.07;;;;;;;;;;4945586;28;20214;-64
2023/01/16 06:31:03;;;;;;;2.83;0.97;;;;;;;;;;4944482;28;20242;-64
2023/01/16 06:33:28;;;;;;;3.37;0.97;;;;;;;;;;4945471;28;20301;-64
2023/01/16 06:35:53;;;;;;;2.57;0.80;;;;;;;;;;4940814;28;20238;-64
2023/01/16 06:38:18;;;;;;;2.43;0.87;;;;;;;;;;4916091;28;20215;-64
2023/01/16 06:40:44;;;;;;;3.97;0.80;;;;;;;;;;4918644;29;20219;-64
2023/01/16 06:43:09;;;;;;;3.03;0.83;;;;;;;;;;4923386;29;20663;-64
2023/01/16 06:45:35;;;;;;;2.83;0.90;;;;;;;;;;4926116;29;20218;-64
2023/01/16 06:48:00;;;;;;;3.77;0.93;;;;;;;;;;4926777;29;20227;-64
2023/01/16 06:50:25;;;;;;;3.47;1.40;;;;;;;;;;4926283;29;20247;-64
2023/01/16 06:52:51;;;;;;;2.77;1.10;;;;;;;;;;4925529;29;20215;-64
2023/01/16 06:55:16;;;;;;;4.17;1.40;;;;;;;;;;4923981;29;20751;-64
2023/01/16 06:57:41;;;;;;;3.93;1.70;;;;;;;;;;4930044;29;20263;-64
2023/01/16 07:00:07;;;;;;;4.57;1.60;;;;;;;;;;4948247;29;20214;-63
2023/01/16 07:02:32;;;;;;;4.43;1.47;;;;;;;;;;4940141;29;20267;-64
2023/01/16 07:04:58;;;;;;;4.18;1.80;;;;;;;;;;4934241;29;20425;-64
2023/01/16 07:07:23;;;;;;;2.80;1.50;;;;;;;;;;4950288;28;20216;-66
2023/01/16 07:09:48;;;;;;;4.00;1.90;;;;;;;;;;4954612;28;20230;-66
2023/01/16 07:12:14;;;;;;;3.80;1.57;;;;;;;;;;4953308;28;20214;-66
2023/01/16 07:22:52;;;;;;;4.33;1.80;;;;;;;;;;4939850;29;20273;-65
2023/01/16 07:25:18;;;;;;;3.53;1.70;;;;;;;;;;4954050;28;20210;-66
2023/01/16 07:27:45;;;;;;;3.27;1.80;;;;;;;;;;4952001;28;20218;-65
2023/01/16 07:30:10;;;;;;;4.37;1.73;;;;;;;;;;4936180;28;20290;-66
2023/01/16 07:32:35;;;;;;;3.73;1.53;;;;;;;;;;4953844;28;20210;-66
2023/01/16 07:35:01;;;;;;;5.37;2.07;;;;;;;;;;4951524;28;20436;-66
2023/01/16 07:37:26;;;;;;;4.17;1.80;;;;;;;;;;4954068;28;20230;-66
2023/01/16 07:39:52;;;;;;;5.90;2.27;;;;;;;;;;4937568;29;20301;-66
2023/01/16 07:42:17;;;;;;;3.00;1.67;;;;;;;;;;4949087;28;20210;-66
2023/01/16 07:44:42;;;;;;;3.93;1.60;;;;;;;;;;4954247;28;20230;-66
2023/01/16 07:47:07;;;;;;;3.80;1.63;;;;;;;;;;4953319;28;20214;-66
2023/01/16 07:49:33;;;;;;;3.63;1.50;;;;;;;;;;4952711;28;20563;-66
2023/01/16 07:51:58;;;;;;;4.57;1.57;;;;;;;;;;4953830;28;20302;-66
2023/01/16 07:54:23;;;;;;;3.73;1.70;;;;;;;;;;4952810;28;20210;-66
2023/01/16 07:56:49;;;;;;;3.77;1.53;;;;;;;;;;4954187;28;20226;-66
2023/01/16 07:59:14;;;;;;;3.67;1.40;;;;;;;;;;4953449;28;20214;-66
2023/01/16 08:01:40;;;;;;;4.50;1.50;;;;;;;;;;4952931;28;20305;-65
2023/01/16 08:04:05;;;;;;;3.37;1.23;;;;;;;;;;4953454;28;20651;-66
2023/01/16 08:06:30;;;;;;;5.07;1.47;;;;;;;;;;4952396;28;20816;-67
2023/01/16 08:08:55;;;;;;;3.53;1.30;;;;;;;;;;4952700;28;20206;-67
2023/01/16 08:11:36;;;;;;;2.63;1.20;;;;;;;;;;4953039;28;20237;-69
2023/01/16 08:14:02;;;;;;;3.60;1.30;;;;;;;;;;4952441;28;20253;-67
2023/01/16 08:16:27;;;;;;;2.83;1.17;;;;;;;;;;4952473;28;20293;-66
2023/01/16 08:18:52;;;;;;;2.70;1.10;;;;;;;;;;4953411;28;20577;-66
2023/01/16 08:21:18;;;;;;;3.33;1.33;;;;;;;;;;4953206;28;20583;-66
2023/01/16 08:23:43;;;;;;;2.87;1.10;;;;;;;;;;4953161;28;20221;-66
2023/01/16 08:26:09;;;;;;;2.93;1.00;;;;;;;;;;4953441;28;20226;-66
2023/01/16 08:28:34;;;;;;;3.70;1.40;;;;;;;;;;4953669;28;20277;-66
2023/01/16 08:31:07;;;;;;;3.63;1.23;;;;;;;;;;4953102;28;20583;-66
2023/01/16 08:33:33;;;;;;;2.58;0.95;;;;;;;;;;4953588;28;20249;-66
2023/01/16 08:35:59;;;;;;;4.07;1.00;;;;;;;;;;4962180;28;20230;-66
2023/01/16 08:38:24;;;;;;;3.63;0.90;;;;;;;;;;4971580;28;20613;-66
2023/01/16 08:40:49;;;;;;;2.70;0.90;;;;;;;;;;4973272;28;20352;-66
2023/01/16 08:51:35;;;;;;;3.20;0.83;;;;;;;;;;4971917;28;20305;-67
2023/01/16 08:54:00;;;;;;;2.57;0.90;;;;;;;;;;4972606;28;20292;-66
2023/01/16 08:56:26;;;;;;;2.40;0.87;;;;;;;;;;4976340;28;20245;-67
2023/01/16 08:58:51;;;;;;;4.57;0.93;;;;;;;;;;4975837;28;20216;-67
2023/01/16 09:01:16;;;;;;;1.47;0.77;;;;;;;;;;4976022;28;20232;-67
2023/01/16 09:03:42;;;;;;;1.87;0.80;;;;;;;;;;4976499;28;20296;-67
2023/01/16 09:06:07;;;;;;;1.87;0.90;;;;;;;;;;4969562;28;20257;-67
2023/01/16 09:08:32;;;;;;;3.70;1.30;;;;;;;;;;4962471;28;20217;-67
2023/01/16 09:13:49;;;;;;;2.70;1.10;;;;;;;;;;4975301;28;20228;-67
2023/01/16 09:16:14;;;;;;;3.07;1.10;;;;;;;;;;4975819;28;20221;-67
2023/01/16 09:18:40;;;;;;;2.67;1.00;;;;;;;;;;4975626;28;20762;-68
2023/01/16 09:21:05;;;;;;;3.77;1.10;;;;;;;;;;4975622;28;20222;-68
2023/01/16 09:23:30;;;;;;;4.87;1.27;;;;;;;;;;4976168;28;20210;-68
2023/01/16 09:25:56;;;;;;;4.13;1.20;;;;;;;;;;4975329;28;20656;-67
2023/01/16 09:28:21;;;;;;;3.33;1.23;;;;;;;;;;4975573;28;20229;-68
2023/01/16 09:30:46;;;;;;;2.97;1.30;;;;;;;;;;4976125;28;20257;-68
2023/01/16 09:33:12;;;;;;;3.53;1.30;;;;;;;;;;4974664;28;20244;-67
2023/01/16 09:35:37;;;;;;;4.00;1.20;;;;;;;;;;4969659;28;20466;-68
2023/01/16 09:38:02;;;;;;;4.93;1.47;;;;;;;;;;4955958;29;20273;-67
2023/01/16 09:40:27;;;;;;;3.50;1.20;;;;;;;;;;4954663;29;20554;-67
2023/01/16 09:45:43;;;;;;;2.47;1.30;;;;;;;;;;4936829;29;20709;-67
2023/01/16 09:48:11;;;;;;;2.03;1.03;;;;;;;;;;4918884;29;20215;-66
2023/01/16 09:50:43;;;;;;;3.63;1.20;;;;;;;;;;4929813;29;20313;-66
2023/01/16 09:58:39;;;;;;;2.13;1.00;;;;;;;;;;4936889;29;20302;-66
2023/01/16 10:01:06;;;;;;;3.57;1.07;;;;;;;;;;4935699;29;20242;-66
2023/01/16 10:03:31;;;;;;;2.77;1.20;;;;;;;;;;4919911;29;20230;-66
2023/01/16 10:05:56;;;;;;;2.87;1.20;;;;;;;;;;4940182;28;20567;-66
2023/01/16 10:08:29;;;;;;;1.83;0.80;;;;;;;;;;4954329;28;20209;-66
2023/01/16 10:10:59;;;;;;;3.33;0.90;;;;;;;;;;4936780;29;20254;-66
2023/01/16 10:13:25;;;;;;;2.63;1.03;;;;;;;;;;4935114;29;20215;-66
2023/01/16 10:15:56;;;;;;;3.17;1.00;;;;;;;;;;4935742;29;20219;-66
2023/01/16 10:18:26;;;;;;;1.87;0.90;;;;;;;;;;4936405;29;20298;-66
2023/01/16 10:20:56;;;;;;;5.07;1.03;;;;;;;;;;4935418;29;20219;-66
2023/01/16 10:23:23;;;;;;;2.70;0.83;;;;;;;;;;4934127;29;20226;-66
2023/01/16 10:25:50;;;;;;;2.67;0.80;;;;;;;;;;4936609;29;20222;-67
2023/01/16 10:28:26;;;;;;;1.73;0.77;;;;;;;;;;4936103;29;20226;-66
2023/01/16 10:31:09;;;;;;;2.30;0.87;;;;;;;;;;4934342;29;20321;-66
2023/01/16 10:33:36;;;;;;;2.17;0.90;;;;;;;;;;4936111;29;20234;-66
2023/01/16 10:36:01;;;;;;;1.90;0.90;;;;;;;;;;4934858;29;20227;-67
2023/01/16 10:38:43;;;;;;;1.87;0.70;;;;;;;;;;4934846;29;20211;-67
2023/01/16 10:49:25;;;;;;;1.40;0.60;;;;;;;;;;4954807;28;20281;-67
2023/01/16 10:49:25;;;;;;;1.97;0.70;;;;;;;;;;4941938;28;20623;-67
2023/01/16 10:51:51;;;;;;;1.60;0.80;;;;;;;;;;4954398;28;20222;-67
2023/01/16 10:54:16;;;;;;;1.83;0.77;;;;;;;;;;4937431;28;20221;-67
2023/01/16 10:56:42;;;;;;;0.70;0.60;;;;;;;;;;4955160;28;20670;-67
2023/01/16 10:59:08;;;;;;;1.37;0.67;;;;;;;;;;4953793;28;20223;-66
2023/01/16 11:01:34;;;;;;;1.00;0.60;;;;;;;;;;4937739;29;20238;-67
2023/01/16 11:03:59;;;;;;;1.80;0.60;;;;;;;;;;4937884;29;20246;-67
2023/01/16 11:06:26;;;;;;;1.87;0.80;;;;;;;;;;4945679;28;20620;-67
2023/01/16 11:08:52;;;;;;;2.43;0.80;;;;;;;;;;4943308;28;20202;-67
2023/01/16 11:20:04;;;;;;;1.23;0.50;;;;;;;;;;4953519;29;20648;-68
2023/01/16 11:22:29;;;;;;;1.80;0.60;;;;;;;;;;4954729;29;20293;-68
2023/01/16 11:24:57;;;;;;;2.23;0.53;;;;;;;;;;4954443;29;20302;-68
2023/01/16 11:27:22;;;;;;;1.27;0.60;;;;;;;;;;4953332;29;20678;-68
2023/01/16 11:29:48;;;;;;;2.23;0.60;;;;;;;;;;4937355;29;20233;-68
2023/01/16 11:32:13;;;;;;;1.10;0.60;;;;;;;;;;4936291;29;20233;-68
2023/01/16 11:34:39;;;;;;;1.60;0.67;;;;;;;;;;4954274;29;20229;-68
2023/01/16 11:37:05;;;;;;;1.73;0.70;;;;;;;;;;4953905;28;20227;-68
2023/01/16 11:39:31;;;;;;;1.03;0.60;;;;;;;;;;4936330;29;20301;-67
2023/01/16 11:41:57;;;;;;;1.50;0.70;;;;;;;;;;4924687;29;20302;-69
2023/01/16 11:47:06;;;;;;;1.23;0.60;;;;;;;;;;4945092;28;20708;-67
2023/01/16 11:49:34;;;;;;;1.43;0.50;;;;;;;;;;4927726;29;20222;-68
2023/01/16 11:52:03;;;;;;;0.50;0.43;;;;;;;;;;4931773;29;20222;-68
2023/01/16 11:54:28;;;;;;;1.20;0.50;;;;;;;;;;4952008;28;20222;-66
2023/01/16 11:56:54;;;;;;;1.13;0.50;;;;;;;;;;4937064;29;20269;-67
2023/01/16 11:59:25;;;;;;;1.80;0.50;;;;;;;;;;4953572;28;20242;-67
2023/01/16 12:04:37;;;;;;;1.20;0.50;;;;;;;;;;4939037;28;20297;-68
2023/01/16 12:07:07;;;;;;;2.17;0.60;;;;;;;;;;4936416;29;20658;-67
2023/01/16 12:09:38;;;;;;;0.97;0.43;;;;;;;;;;4948822;28;20258;-68
2023/01/16 12:14:55;;;;;;;0.87;0.50;;;;;;;;;;4953252;29;20313;-68
2023/01/16 12:17:22;;;;;;;2.30;0.50;;;;;;;;;;4936456;29;20687;-68
2023/01/16 12:20:02;;;;;;;1.03;0.63;;;;;;;;;;4953661;29;20222;-68
2023/01/16 12:22:44;;;;;;;1.70;0.50;;;;;;;;;;4952858;29;20220;-68
2023/01/16 12:25:15;;;;;;;1.33;0.53;;;;;;;;;;4936272;29;20297;-68
2023/01/16 12:27:44;;;;;;;1.67;0.60;;;;;;;;;;4954012;29;20689;-68
2023/01/16 12:30:09;;;;;;;0.83;0.40;;;;;;;;;;4953697;28;20651;-68
2023/01/16 12:32:42;;;;;;;1.27;0.40;;;;;;;;;;4957314;29;20298;-68
2023/01/16 12:35:12;;;;;;;1.73;0.43;;;;;;;;;;4956629;28;20219;-67
2023/01/16 12:37:38;;;;;;;1.20;0.50;;;;;;;;;;4939882;29;20215;-68
2023/01/16 12:40:23;;;;;;;0.43;0.40;;;;;;;;;;4956825;29;20223;-68
2023/01/16 12:45:46;;;;;;;1.00;0.60;;;;;;;;;;4941284;28;20233;-68
2023/01/16 12:48:12;;;;;;;0.47;0.33;;;;;;;;;;4931957;29;20210;-68
2023/01/16 12:50:42;;;;;;;1.70;0.53;;;;;;;;;;4939885;29;20629;-68
2023/01/16 12:53:07;;;;;;;0.67;0.40;;;;;;;;;;4956938;28;20643;-67
2023/01/16 12:55:37;;;;;;;0.87;0.33;;;;;;;;;;4957056;28;20219;-68
2023/01/16 12:58:09;;;;;;;1.35;0.63;;;;;;;;;;4956224;28;20211;-67
2023/01/16 13:00:40;;;;;;;0.50;0.43;;;;;;;;;;4939224;29;20274;-68
2023/01/16 13:03:08;;;;;;;0.50;0.40;;;;;;;;;;4949456;28;20272;-67
2023/01/16 13:05:33;;;;;;;0.80;0.40;;;;;;;;;;4956270;28;20269;-68
2023/01/16 13:07:58;;;;;;;0.83;0.40;;;;;;;;;;4952052;28;20214;-67
2023/01/16 13:13:22;;;;;;;0.33;0.33;;;;;;;;;;4939238;28;20220;-67
2023/01/16 13:15:50;;;;;;;0.67;0.40;;;;;;;;;;4955667;28;20254;-67
2023/01/16 13:18:18;;;;;;;1.27;0.40;;;;;;;;;;4938347;28;20768;-67
2023/01/16 13:20:44;;;;;;;0.53;0.30;;;;;;;;;;4950183;28;20915;-68
2023/01/16 13:23:13;;;;;;;1.10;0.50;;;;;;;;;;4935459;28;20218;-67
2023/01/16 13:25:40;;;;;;;0.70;0.40;;;;;;;;;;4938735;29;20343;-67
2023/01/16 13:28:06;;;;;;;1.13;0.60;;;;;;;;;;4955803;28;20218;-67
2023/01/16 13:30:31;;;;;;;1.07;0.60;;;;;;;;;;4956531;28;20225;-67
2023/01/16 13:32:58;;;;;;;1.33;0.60;;;;;;;;;;4954292;28;20219;-67
2023/01/16 13:35:26;;;;;;;2.10;0.50;;;;;;;;;;4937965;28;20272;-67
2023/01/16 13:37:52;;;;;;;0.40;0.40;;;;;;;;;;4965810;28;20269;-68
2023/01/16 13:40:26;;;;;;;1.55;0.43;;;;;;;;;;4974526;28;20209;-68
2023/01/16 13:42:53;;;;;;;0.63;0.40;;;;;;;;;;4956215;28;20213;-68
2023/01/16 13:48:09;;;;;;;2.95;0.50;;;;;;;;;;4957342;28;20692;-67
2023/01/16 13:50:35;;;;;;;0.50;0.40;;;;;;;;;;4958889;28;20763;-68
2023/01/16 13:53:02;;;;;;;0.70;0.40;;;;;;;;;;4973247;28;20214;-66
2023/01/16 13:55:28;;;;;;;0.90;0.60;;;;;;;;;;4975599;28;20555;-68
2023/01/16 13:57:55;;;;;;;1.00;0.50;;;;;;;;;;4974288;28;20222;-67
2023/01/16 14:00:21;;;;;;;1.80;0.50;;;;;;;;;;4958988;28;20242;-67
2023/01/16 14:02:47;;;;;;;1.23;0.50;;;;;;;;;;4955928;28;20221;-67
2023/01/16 14:05:14;;;;;;;2.13;0.60;;;;;;;;;;4954092;28;20669;-67
2023/01/16 14:10:40;;;;;;;0.90;0.47;;;;;;;;;;4971923;28;20732;-67
2023/01/16 14:13:21;;;;;;;0.73;0.50;;;;;;;;;;4972803;28;20225;-67
2023/01/16 14:18:41;;;;;;;0.60;0.50;;;;;;;;;;4974866;28;20271;-66
2023/01/16 14:21:16;;;;;;;0.57;0.50;;;;;;;;;;4973404;28;20222;-66
2023/01/16 14:24:00;;;;;;;1.33;0.60;;;;;;;;;;4973804;28;20268;-66
2023/01/16 14:26:38;;;;;;;2.47;0.60;;;;;;;;;;4973612;28;20217;-65
2023/01/16 14:29:05;;;;;;;1.17;0.47;;;;;;;;;;4973694;28;20251;-65
2023/01/16 14:31:41;;;;;;;1.27;0.70;;;;;;;;;;4974481;28;20228;-66
2023/01/16 14:34:10;;;;;;;1.77;0.60;;;;;;;;;;4974369;28;20272;-66
2023/01/16 14:36:35;;;;;;;1.20;0.80;;;;;;;;;;4972382;28;20696;-66
2023/01/16 14:39:00;;;;;;;0.77;0.53;;;;;;;;;;4974330;28;20218;-66
2023/01/16 14:55:44;;;;;;;1.43;0.50;;;;;;;;;;4954922;28;20225;-66
2023/01/16 14:58:11;;;;;;;1.73;0.70;;;;;;;;;;4953835;28;20272;-65
2023/01/16 15:00:37;;;;;;;1.00;0.53;;;;;;;;;;4951841;28;20628;-66
2023/01/16 15:03:04;;;;;;;0.73;0.57;;;;;;;;;;4959908;28;20304;-66
2023/01/16 15:05:49;;;;;;;0.90;0.57;;;;;;;;;;4962947;28;20300;-66
2023/01/16 15:08:15;;;;;;;1.10;0.60;;;;;;;;;;4951963;28;20599;-66
2023/01/16 15:10:42;;;;;;;1.33;0.60;;;;;;;;;;4964303;28;20727;-66
2023/01/16 15:13:12;;;;;;;0.90;0.63;;;;;;;;;;4967554;28;20218;-66
2023/01/16 15:15:37;;;;;;;1.70;0.60;;;;;;;;;;4963947;28;20308;-66
2023/01/16 15:23:37;;;;;;;1.17;0.70;;;;;;;;;;4952498;28;20249;-66
2023/01/16 15:26:03;;;;;;;1.50;0.60;;;;;;;;;;4958507;28;20205;-66
2023/01/16 15:28:43;;;;;;;0.93;0.73;;;;;;;;;;4964956;28;20216;-66
2023/01/16 15:31:10;;;;;;;1.40;0.70;;;;;;;;;;4960249;28;20282;-66
2023/01/16 15:33:44;;;;;;;1.47;0.70;;;;;;;;;;4966380;28;20740;-66
2023/01/16 15:36:22;;;;;;;0.90;0.60;;;;;;;;;;4947329;28;20289;-66
2023/01/16 15:38:49;;;;;;;0.77;0.60;;;;;;;;;;4948264;28;20797;-66
2023/01/16 15:41:17;;;;;;;1.53;0.67;;;;;;;;;;4948525;28;20210;-65
2023/01/16 15:46:33;;;;;;;0.77;0.60;;;;;;;;;;4939793;28;20269;-66
2023/01/16 15:49:01;;;;;;;0.90;0.50;;;;;;;;;;4942990;28;20733;-66
2023/01/16 15:51:26;;;;;;;0.77;0.50;;;;;;;;;;4946331;28;20237;-66
2023/01/16 15:53:54;;;;;;;2.22;0.50;;;;;;;;;;4961775;28;20222;-66
2023/01/16 15:56:21;;;;;;;0.80;0.50;;;;;;;;;;4961778;28;20218;-66
2023/01/16 15:58:48;;;;;;;0.90;0.50;;;;;;;;;;4962513;28;20214;-66
2023/01/16 16:01:13;;;;;;;1.10;0.60;;;;;;;;;;4947038;28;20218;-66
2023/01/16 16:03:40;;;;;;;0.60;0.47;;;;;;;;;;4948210;28;20234;-66
2023/01/16 16:06:06;;;;;;;0.80;0.70;;;;;;;;;;4949313;28;20534;-66
2023/01/16 16:08:34;;;;;;;0.67;0.50;;;;;;;;;;4958276;28;20210;-66
2023/01/16 16:13:44;;;;;;;1.10;0.70;;;;;;;;;;4958824;28;20447;-66
2023/01/16 16:18:59;;;;;;;1.42;0.80;;;;;;;;;;4951345;28;20427;-66